createdAt,value
2017-08-22T00:01:54.391Z,11.77
2017-08-22T00:04:21.853Z,11.67
2017-08-22T00:06:49.297Z,11.46
2017-08-22T00:09:16.756Z,11.48
2017-08-22T00:11:44.210Z,11.47
2017-08-22T00:14:11.653Z,11.43
2017-08-22T00:16:39.128Z,11.22
2017-08-22T00:19:06.578Z,11.28
2017-08-22T00:21:34.051Z,11.33
2017-08-22T00:24:01.517Z,11.26
2017-08-22T00:26:28.986Z,11.47
2017-08-22T00:28:56.429Z,11.32
2017-08-22T00:31:23.898Z,11.33
2017-08-22T00:33:51.356Z,11.33
2017-08-22T00:36:18.801Z,11.37
2017-08-22T00:38:46.274Z,11.35
2017-08-22T00:41:13.728Z,11.20
2017-08-22T00:43:41.200Z,11.14
2017-08-22T00:46:08.645Z,11.18
2017-08-22T00:48:36.131Z,11.10
2017-08-22T00:51:03.607Z,11.19
2017-08-22T00:53:31.062Z,11.00
2017-08-22T00:55:58.529Z,10.92
2017-08-22T00:58:26.020Z,11.07
2017-08-22T01:00:53.470Z,11.03
2017-08-22T01:03:20.948Z,10.89
2017-08-22T01:05:48.413Z,10.83
2017-08-22T01:08:15.891Z,10.94
2017-08-22T01:10:43.345Z,10.92
2017-08-22T01:13:10.789Z,10.85
2017-08-22T01:15:38.255Z,10.99
2017-08-22T01:18:05.700Z,10.80
2017-08-22T01:20:33.183Z,10.85
2017-08-22T01:23:00.653Z,10.72
2017-08-22T01:25:28.132Z,10.71
2017-08-22T01:27:55.581Z,10.81
2017-08-22T01:30:23.033Z,10.96
2017-08-22T01:32:50.525Z,10.90
2017-08-22T01:35:17.974Z,10.82
2017-08-22T01:37:45.431Z,10.70
2017-08-22T01:40:12.917Z,10.83
2017-08-22T01:42:40.361Z,10.82
2017-08-22T01:45:07.833Z,10.73
2017-08-22T01:47:35.300Z,10.76
2017-08-22T01:50:02.746Z,10.81
2017-08-22T01:52:30.219Z,10.79
2017-08-22T01:54:57.669Z,10.76
2017-08-22T01:57:25.138Z,10.63
2017-08-22T01:59:52.588Z,10.64
2017-08-22T02:02:20.053Z,10.68
2017-08-22T02:04:47.514Z,10.58
2017-08-22T02:07:14.981Z,10.57
2017-08-22T02:09:42.423Z,10.58
2017-08-22T02:12:09.870Z,10.55
2017-08-22T02:14:37.358Z,10.40
2017-08-22T02:17:04.824Z,10.48
2017-08-22T02:19:32.301Z,10.47
2017-08-22T02:21:59.769Z,10.52
2017-08-22T02:24:27.237Z,10.48
2017-08-22T02:26:54.689Z,10.56
2017-08-22T02:29:22.165Z,10.59
2017-08-22T02:31:49.652Z,10.50
2017-08-22T02:34:17.112Z,10.36
2017-08-22T02:36:44.573Z,10.21
2017-08-22T02:39:12.045Z,10.35
2017-08-22T02:41:39.502Z,10.31
2017-08-22T02:44:06.982Z,10.21
2017-08-22T02:46:34.459Z,10.33
2017-08-22T02:49:01.905Z,10.31
2017-08-22T02:51:29.394Z,10.49
2017-08-22T02:53:56.851Z,10.46
2017-08-22T02:56:24.329Z,10.37
2017-08-22T02:58:51.780Z,10.36
2017-08-22T03:01:19.257Z,10.35
2017-08-22T03:03:46.712Z,10.31
2017-08-22T03:06:14.193Z,10.36
2017-08-22T03:08:41.657Z,10.43
2017-08-22T03:11:09.120Z,10.25
2017-08-22T03:13:36.572Z,10.17
2017-08-22T03:16:04.016Z,10.32
2017-08-22T03:18:31.494Z,10.17
2017-08-22T03:20:58.967Z,10.12
2017-08-22T03:23:26.429Z,10.10
2017-08-22T03:25:53.913Z,10.10
2017-08-22T03:28:21.361Z,9.94
2017-08-22T03:30:48.805Z,10.06
2017-08-22T03:33:16.293Z,10.30
2017-08-22T03:35:43.746Z,10.31
2017-08-22T03:38:11.200Z,10.18
2017-08-22T03:40:38.672Z,10.19
2017-08-22T03:43:06.129Z,10.13
2017-08-22T03:45:33.610Z,10.05
2017-08-22T03:48:01.068Z,10.34
2017-08-22T03:50:28.541Z,10.00
2017-08-22T03:52:55.998Z,10.22
2017-08-22T03:55:23.469Z,10.36
2017-08-22T03:57:50.941Z,10.13
2017-08-22T04:00:18.421Z,10.54
2017-08-22T04:02:45.873Z,10.41
2017-08-22T04:05:13.346Z,10.60
2017-08-22T04:07:40.822Z,10.53
2017-08-22T04:10:08.296Z,10.18
2017-08-22T04:12:35.740Z,10.33
2017-08-22T04:15:03.208Z,10.36
2017-08-22T04:17:30.669Z,10.57
2017-08-22T04:19:58.146Z,10.75
2017-08-22T04:22:25.597Z,10.49
2017-08-22T04:24:53.047Z,10.61
2017-08-22T04:27:20.511Z,10.87
2017-08-22T04:29:47.954Z,10.40
2017-08-22T04:32:15.445Z,10.67
2017-08-22T04:34:42.880Z,10.65
2017-08-22T04:39:47.161Z,11.00
2017-08-22T04:42:14.618Z,10.78
2017-08-22T04:44:42.089Z,11.09
2017-08-22T04:47:09.537Z,10.98
2017-08-22T04:49:36.977Z,10.94
2017-08-22T04:52:04.449Z,10.93
2017-08-22T04:54:32.301Z,11.01
2017-08-22T04:56:59.748Z,10.98
2017-08-22T04:59:27.217Z,11.21
2017-08-22T05:01:54.689Z,10.98
2017-08-22T05:04:22.134Z,10.86
2017-08-22T05:06:49.609Z,11.14
2017-08-22T05:09:17.060Z,12.04
2017-08-22T05:11:44.515Z,11.80
2017-08-22T05:14:11.985Z,11.87
2017-08-22T05:16:39.432Z,11.94
2017-08-22T05:19:06.905Z,11.94
2017-08-22T05:21:34.360Z,11.75
2017-08-22T05:24:01.830Z,11.62
2017-08-22T05:26:29.302Z,11.84
2017-08-22T05:28:56.801Z,11.72
2017-08-22T05:31:24.257Z,12.21
2017-08-22T05:33:51.735Z,11.93
2017-08-22T05:36:19.189Z,12.33
2017-08-22T05:38:46.656Z,12.49
2017-08-22T05:41:14.105Z,12.36
2017-08-22T05:43:41.547Z,12.58
2017-08-22T05:46:09.025Z,12.54
2017-08-22T05:48:36.482Z,12.51
2017-08-22T05:51:03.957Z,12.26
2017-08-22T05:53:31.401Z,12.42
2017-08-22T05:55:58.873Z,12.44
2017-08-22T05:58:26.330Z,12.45
2017-08-22T06:00:53.810Z,12.60
2017-08-22T06:03:21.303Z,12.61
2017-08-22T06:05:48.758Z,12.65
2017-08-22T06:08:16.241Z,12.76
2017-08-22T06:10:43.696Z,12.81
2017-08-22T06:13:11.153Z,12.84
2017-08-22T06:15:38.641Z,12.82
2017-08-22T06:18:06.103Z,12.87
2017-08-22T06:20:33.589Z,12.87
2017-08-22T06:23:01.066Z,13.09
2017-08-22T06:25:28.522Z,13.13
2017-08-22T06:27:55.993Z,13.40
2017-08-22T06:30:23.443Z,13.27
2017-08-22T06:32:50.929Z,13.39
2017-08-22T06:35:18.381Z,13.35
2017-08-22T06:37:45.883Z,13.39
2017-08-22T06:40:13.339Z,13.39
2017-08-22T06:42:40.813Z,13.67
2017-08-22T06:45:08.294Z,13.71
2017-08-22T06:47:36.044Z,13.81
2017-08-22T06:50:03.518Z,13.88
2017-08-22T06:52:30.984Z,13.89
2017-08-22T06:54:58.437Z,14.17
2017-08-22T06:57:25.889Z,14.06
2017-08-22T06:59:53.361Z,14.06
2017-08-22T07:02:20.805Z,14.28
2017-08-22T07:04:48.262Z,14.33
2017-08-22T07:07:15.738Z,14.55
2017-08-22T07:09:43.199Z,14.48
2017-08-22T07:12:10.658Z,14.39
2017-08-22T07:14:38.153Z,14.60
2017-08-22T07:17:05.610Z,14.71
2017-08-22T07:19:33.088Z,14.72
2017-08-22T07:22:00.541Z,14.79
2017-08-22T07:24:28.001Z,14.90
2017-08-22T07:26:55.472Z,15.10
2017-08-22T07:29:22.925Z,15.11
2017-08-22T07:31:50.399Z,15.28
2017-08-22T07:34:17.845Z,15.39
2017-08-22T07:36:45.467Z,15.38
2017-08-22T07:39:12.914Z,15.48
2017-08-22T07:41:40.381Z,15.50
2017-08-22T07:44:07.849Z,15.59
2017-08-22T07:46:35.333Z,15.85
2017-08-22T07:49:02.804Z,15.69
2017-08-22T07:51:30.286Z,15.77
2017-08-22T07:53:57.733Z,15.95
2017-08-22T07:56:25.180Z,15.80
2017-08-22T07:58:52.649Z,15.94
2017-08-22T08:01:20.099Z,16.04
2017-08-22T08:03:47.578Z,16.28
2017-08-22T08:06:15.050Z,16.24
2017-08-22T08:08:42.553Z,16.28
2017-08-22T08:11:10.000Z,16.63
2017-08-22T08:13:37.474Z,16.63
2017-08-22T08:16:04.941Z,16.66
2017-08-22T08:18:32.414Z,16.85
2017-08-22T08:20:59.861Z,16.44
2017-08-22T08:23:27.336Z,17.08
2017-08-22T08:25:54.782Z,17.06
2017-08-22T08:28:22.254Z,17.12
2017-08-22T08:30:49.708Z,17.18
2017-08-22T08:33:17.176Z,17.17
2017-08-22T08:35:44.626Z,17.41
2017-08-22T08:38:12.082Z,17.40
2017-08-22T08:40:39.558Z,17.63
2017-08-22T08:43:07.009Z,17.50
2017-08-22T08:45:34.473Z,17.54
2017-08-22T08:48:01.927Z,17.61
2017-08-22T08:50:29.393Z,17.96
2017-08-22T08:52:56.865Z,17.88
2017-08-22T08:55:24.308Z,18.02
2017-08-22T08:57:51.766Z,18.10
2017-08-22T09:00:19.236Z,18.32
2017-08-22T09:02:46.691Z,18.16
2017-08-22T09:05:14.164Z,18.08
2017-08-22T09:07:41.613Z,18.34
2017-08-22T09:10:09.083Z,18.71
2017-08-22T09:12:36.521Z,18.91
2017-08-22T09:15:04.165Z,18.63
2017-08-22T09:17:31.626Z,18.79
2017-08-22T09:19:59.094Z,18.79
2017-08-22T09:22:26.569Z,19.15
2017-08-22T09:24:54.039Z,19.08
2017-08-22T09:27:21.496Z,19.29
2017-08-22T09:29:48.961Z,19.64
2017-08-22T09:32:16.421Z,19.63
2017-08-22T09:34:43.893Z,19.80
2017-08-22T09:37:11.357Z,19.76
2017-08-22T09:39:38.835Z,20.00
2017-08-22T09:42:06.311Z,19.92
2017-08-22T09:44:33.775Z,20.11
2017-08-22T09:47:01.258Z,20.04
2017-08-22T09:49:28.728Z,20.39
2017-08-22T09:51:56.169Z,20.63
2017-08-22T09:54:23.637Z,20.13
2017-08-22T09:56:51.085Z,20.60
2017-08-22T09:59:18.553Z,20.67
2017-08-22T10:01:45.997Z,20.76
2017-08-22T10:04:13.447Z,20.94
2017-08-22T10:06:40.914Z,21.01
2017-08-22T10:09:08.356Z,20.83
2017-08-22T10:11:35.800Z,20.92
2017-08-22T10:14:03.277Z,21.56
2017-08-22T10:16:30.746Z,21.61
2017-08-22T10:18:58.815Z,21.55
2017-08-22T10:21:26.285Z,21.48
2017-08-22T10:23:53.761Z,21.77
2017-08-22T10:26:21.205Z,21.97
2017-08-22T10:28:48.650Z,21.71
2017-08-22T10:31:16.118Z,21.97
2017-08-22T10:33:43.566Z,22.29
2017-08-22T10:36:11.045Z,22.09
2017-08-22T10:38:38.493Z,22.45
2017-08-22T10:41:05.946Z,22.57
2017-08-22T10:43:33.400Z,22.66
2017-08-22T10:46:00.851Z,22.29
2017-08-22T10:48:28.337Z,22.78
2017-08-22T10:50:55.792Z,23.24
2017-08-22T10:53:23.247Z,23.03
2017-08-22T10:55:50.717Z,23.35
2017-08-22T10:58:18.169Z,23.86
2017-08-22T11:00:45.636Z,23.65
2017-08-22T11:03:13.089Z,23.51
2017-08-22T11:05:40.570Z,23.35
2017-08-22T11:08:08.017Z,23.49
2017-08-22T11:10:35.473Z,23.74
2017-08-22T11:13:02.950Z,24.00
2017-08-22T11:15:30.412Z,23.35
2017-08-22T11:17:57.881Z,24.03
2017-08-22T11:20:25.327Z,23.32
2017-08-22T11:22:52.773Z,23.82
2017-08-22T11:25:20.239Z,23.94
2017-08-22T11:27:47.693Z,23.31
2017-08-22T11:30:15.164Z,23.83
2017-08-22T11:32:42.615Z,24.18
2017-08-22T11:35:10.086Z,24.21
2017-08-22T11:37:37.532Z,23.96
2017-08-22T11:40:05.006Z,23.47
2017-08-22T11:42:32.459Z,24.38
2017-08-22T11:44:59.940Z,23.73
2017-08-22T11:47:27.378Z,24.36
2017-08-22T11:49:54.823Z,24.06
2017-08-22T11:52:22.292Z,24.59
2017-08-22T11:54:49.748Z,24.31
2017-08-22T11:57:17.224Z,24.00
2017-08-22T11:59:44.694Z,24.59
2017-08-22T12:02:12.137Z,25.20
2017-08-22T12:04:39.584Z,25.62
2017-08-22T12:07:07.050Z,26.01
2017-08-22T12:09:34.520Z,23.15
2017-08-22T12:12:01.975Z,23.50
2017-08-22T12:14:29.427Z,23.89
2017-08-22T12:16:56.929Z,24.97
2017-08-22T12:19:24.392Z,24.96
2017-08-22T12:21:51.873Z,25.05
2017-08-22T12:24:19.322Z,24.66
2017-08-22T12:26:46.961Z,22.97
2017-08-22T12:29:14.434Z,23.81
2017-08-22T12:31:41.888Z,23.86
2017-08-22T12:34:09.342Z,25.37
2017-08-22T12:36:36.814Z,26.00
2017-08-22T12:39:04.297Z,26.09
2017-08-22T12:41:31.749Z,26.85
2017-08-22T12:43:59.199Z,26.53
2017-08-22T12:46:26.664Z,27.47
2017-08-22T12:48:54.105Z,26.76
2017-08-22T12:51:21.590Z,28.33
2017-08-22T12:53:49.041Z,28.70
2017-08-22T12:56:16.485Z,28.55
2017-08-22T12:58:43.945Z,28.74
2017-08-22T13:01:11.427Z,26.25
2017-08-22T13:03:38.897Z,27.79
2017-08-22T13:06:06.356Z,27.79
2017-08-22T13:08:33.829Z,27.77
2017-08-22T13:11:01.274Z,26.80
2017-08-22T13:13:28.815Z,26.89
2017-08-22T13:15:56.261Z,27.32
2017-08-22T13:18:23.729Z,26.59
2017-08-22T13:20:51.664Z,26.28
2017-08-22T13:23:19.109Z,26.31
2017-08-22T13:25:46.583Z,26.51
2017-08-22T13:28:14.029Z,26.89
2017-08-22T13:30:41.487Z,26.53
2017-08-22T13:33:09.014Z,26.76
2017-08-22T13:38:13.160Z,26.72
2017-08-22T13:40:40.608Z,26.88
2017-08-22T13:43:08.088Z,27.18
2017-08-22T13:45:35.533Z,26.18
2017-08-22T13:48:02.998Z,26.86
2017-08-22T13:50:30.501Z,26.94
2017-08-22T13:52:57.940Z,26.49
2017-08-22T13:55:25.406Z,26.11
2017-08-22T13:57:52.880Z,25.47
2017-08-22T14:00:20.353Z,25.15
2017-08-22T14:02:47.801Z,25.57
2017-08-22T14:05:15.272Z,25.69
2017-08-22T14:07:42.733Z,24.43
2017-08-22T14:10:10.208Z,24.07
2017-08-22T14:12:37.775Z,24.70
2017-08-22T14:15:05.241Z,25.04
2017-08-22T14:17:32.718Z,24.67
2017-08-22T14:20:00.166Z,24.34
2017-08-22T14:22:27.631Z,24.55
2017-08-22T14:24:55.092Z,24.58
2017-08-22T14:27:22.538Z,24.72
2017-08-22T14:29:50.010Z,24.32
2017-08-22T14:32:17.455Z,23.77
2017-08-22T14:34:44.929Z,24.52
2017-08-22T14:37:12.400Z,23.46
2017-08-22T14:39:39.843Z,25.00
2017-08-22T14:42:07.300Z,24.93
2017-08-22T14:44:34.795Z,25.77
2017-08-22T14:47:02.262Z,26.37
2017-08-22T14:49:29.702Z,27.35
2017-08-22T14:51:57.169Z,27.00
2017-08-22T14:54:24.618Z,26.35
2017-08-22T14:56:52.073Z,27.42
2017-08-22T14:59:19.541Z,26.92
2017-08-22T15:01:46.985Z,26.32
2017-08-22T15:04:14.453Z,26.45
2017-08-22T15:06:41.904Z,26.41
2017-08-22T15:09:09.369Z,26.89
2017-08-22T15:11:36.821Z,26.47
2017-08-22T15:14:04.286Z,24.87
2017-08-22T15:16:31.738Z,25.53
2017-08-22T15:18:59.181Z,26.31
2017-08-22T15:21:26.649Z,25.69
2017-08-22T15:23:54.101Z,27.02
2017-08-22T15:26:21.590Z,25.86
2017-08-22T15:28:49.032Z,26.24
2017-08-22T15:31:16.505Z,27.02
2017-08-22T15:33:43.966Z,27.09
2017-08-22T15:36:11.421Z,26.55
2017-08-22T15:38:38.868Z,26.40
2017-08-22T15:41:06.333Z,26.12
2017-08-22T15:43:33.807Z,26.54
2017-08-22T15:46:01.263Z,25.93
2017-08-22T15:48:28.735Z,26.64
2017-08-22T15:50:56.185Z,26.53
2017-08-22T15:53:23.650Z,26.55
2017-08-22T15:55:51.098Z,26.67
2017-08-22T15:58:18.569Z,26.47
2017-08-22T16:00:46.037Z,26.07
2017-08-22T16:03:13.485Z,24.94
2017-08-22T16:05:40.931Z,24.83
2017-08-22T16:08:08.407Z,24.14
2017-08-22T16:10:35.853Z,23.80
2017-08-22T16:13:03.316Z,23.72
2017-08-22T16:15:30.757Z,24.33
2017-08-22T16:17:58.209Z,25.04
2017-08-22T16:20:25.677Z,24.51
2017-08-22T16:22:53.115Z,24.35
2017-08-22T16:25:20.581Z,24.92
2017-08-22T16:27:48.025Z,25.68
2017-08-22T16:30:15.495Z,25.29
2017-08-22T16:32:42.958Z,25.12
2017-08-22T16:35:10.409Z,24.87
2017-08-22T16:37:37.880Z,25.52
2017-08-22T16:40:05.318Z,25.47
2017-08-22T16:42:32.794Z,25.18
2017-08-22T16:45:01.006Z,25.02
2017-08-22T16:47:28.464Z,24.52
2017-08-22T16:49:55.958Z,24.60
2017-08-22T16:52:23.409Z,23.44
2017-08-22T16:54:50.884Z,22.93
2017-08-22T16:57:18.334Z,23.10
2017-08-22T16:59:45.804Z,23.06
2017-08-22T17:02:13.281Z,23.15
2017-08-22T17:04:40.724Z,23.12
2017-08-22T17:07:08.167Z,23.72
2017-08-22T17:09:35.641Z,23.23
2017-08-22T17:12:03.081Z,22.51
2017-08-22T17:14:30.544Z,22.49
2017-08-22T17:16:58.061Z,22.08
2017-08-22T17:19:25.506Z,22.18
2017-08-22T17:21:52.948Z,21.76
2017-08-22T17:24:20.412Z,21.47
2017-08-22T17:26:47.856Z,21.68
2017-08-22T17:29:15.327Z,21.46
2017-08-22T17:31:43.695Z,21.36
2017-08-22T17:34:11.141Z,21.66
2017-08-22T17:36:38.606Z,21.38
2017-08-22T17:39:06.047Z,21.48
2017-08-22T17:41:33.521Z,21.25
2017-08-22T17:44:00.970Z,21.38
2017-08-22T17:46:28.438Z,20.98
2017-08-22T17:48:55.958Z,20.71
2017-08-22T17:51:23.436Z,20.65
2017-08-22T17:53:50.904Z,20.52
2017-08-22T17:56:18.345Z,20.03
2017-08-22T17:58:45.825Z,19.98
2017-08-22T18:01:13.266Z,19.92
2017-08-22T18:03:40.729Z,19.60
2017-08-22T18:06:08.181Z,19.62
2017-08-22T18:08:35.645Z,19.57
2017-08-22T18:11:03.116Z,19.57
2017-08-22T18:13:30.562Z,19.43
2017-08-22T18:15:58.033Z,19.29
2017-08-22T18:18:25.506Z,19.28
2017-08-22T18:20:52.949Z,19.21
2017-08-22T18:23:20.413Z,19.15
2017-08-22T18:25:47.881Z,19.14
2017-08-22T18:28:15.324Z,18.96
2017-08-22T18:30:42.797Z,18.97
2017-08-22T18:33:10.249Z,18.95
2017-08-22T18:35:37.708Z,18.71
2017-08-22T18:38:05.156Z,18.59
2017-08-22T18:40:32.601Z,18.45
2017-08-22T18:43:00.075Z,18.32
2017-08-22T18:45:27.539Z,18.23
2017-08-22T18:47:55.001Z,18.16
2017-08-22T18:50:22.457Z,18.15
2017-08-22T18:52:49.900Z,17.92
2017-08-22T18:55:17.381Z,17.90
2017-08-22T18:57:44.845Z,17.99
2017-08-22T19:00:12.298Z,17.85
2017-08-22T19:02:39.734Z,18.00
2017-08-22T19:05:07.215Z,18.06
2017-08-22T19:07:34.662Z,17.84
2017-08-22T19:10:02.111Z,17.68
2017-08-22T19:12:29.594Z,17.68
2017-08-22T19:14:57.066Z,17.68
2017-08-22T19:17:24.517Z,17.55
2017-08-22T19:19:51.981Z,17.47
2017-08-22T19:22:19.421Z,17.33
2017-08-22T19:24:46.868Z,17.38
2017-08-22T19:27:14.338Z,17.37
2017-08-22T19:29:41.825Z,17.45
2017-08-22T19:32:09.276Z,17.13
2017-08-22T19:34:36.730Z,16.98
2017-08-22T19:37:04.201Z,17.01
2017-08-22T19:39:31.825Z,16.98
2017-08-22T19:41:59.311Z,16.94
2017-08-22T19:44:26.972Z,17.05
2017-08-22T19:46:54.884Z,17.04
2017-08-22T19:49:22.357Z,17.05
2017-08-22T19:51:50.127Z,17.00
2017-08-22T19:54:17.664Z,16.71
2017-08-22T19:56:45.416Z,16.72
2017-08-22T19:59:12.893Z,16.66
2017-08-22T20:01:40.900Z,16.76
2017-08-22T20:04:08.363Z,16.80
2017-08-22T20:06:35.888Z,16.89
2017-08-22T20:09:03.342Z,16.74
2017-08-22T20:11:30.814Z,16.43
2017-08-22T20:13:58.253Z,16.11
2017-08-22T20:16:25.730Z,16.01
2017-08-22T20:18:53.212Z,16.05
2017-08-22T20:21:20.667Z,15.97
2017-08-22T20:23:48.145Z,16.07
2017-08-22T20:26:15.600Z,15.90
2017-08-22T20:28:43.070Z,15.92
2017-08-22T20:31:10.562Z,16.03
2017-08-22T20:33:38.011Z,16.06
2017-08-22T20:36:05.488Z,16.17
2017-08-22T20:38:32.929Z,16.05
2017-08-22T20:41:00.380Z,15.99
2017-08-22T20:43:27.855Z,15.91
2017-08-22T20:45:55.304Z,15.91
2017-08-22T20:48:22.769Z,16.06
2017-08-22T20:50:50.210Z,15.98
2017-08-22T20:53:17.671Z,16.05
2017-08-22T20:55:45.121Z,16.14
2017-08-22T20:58:12.593Z,16.01
2017-08-22T21:00:40.041Z,16.01
2017-08-22T21:03:07.509Z,15.91
2017-08-22T21:05:34.972Z,15.91
2017-08-22T21:08:02.430Z,15.91
2017-08-22T21:10:29.909Z,15.99
2017-08-22T21:12:57.344Z,15.94
2017-08-22T21:15:24.788Z,15.85
2017-08-22T21:17:52.271Z,15.95
2017-08-22T21:20:19.726Z,15.90
2017-08-22T21:22:47.174Z,15.78
2017-08-22T21:25:14.641Z,15.67
2017-08-22T21:27:42.088Z,15.72
2017-08-22T21:30:09.641Z,15.68
2017-08-22T21:32:37.088Z,15.70
2017-08-22T21:35:04.537Z,15.67
2017-08-22T21:37:32.013Z,15.63
2017-08-22T21:39:59.453Z,15.60
2017-08-22T21:42:26.931Z,15.59
2017-08-22T21:44:54.384Z,15.62
2017-08-22T21:47:21.838Z,15.64
2017-08-22T21:49:49.312Z,15.63
2017-08-22T21:52:16.781Z,15.48
2017-08-22T21:54:44.233Z,15.51
2017-08-22T21:57:11.680Z,15.54
2017-08-22T21:59:39.148Z,15.60
2017-08-22T22:02:06.593Z,15.64
2017-08-22T22:04:34.060Z,15.50
2017-08-22T22:07:01.517Z,15.47
2017-08-22T22:09:28.997Z,15.44
2017-08-22T22:11:56.468Z,15.25
2017-08-22T22:14:23.933Z,15.21
2017-08-22T22:16:51.381Z,15.21
2017-08-22T22:19:18.835Z,15.22
2017-08-22T22:21:46.293Z,15.17
2017-08-22T22:24:13.760Z,15.23
2017-08-22T22:26:41.216Z,15.30
2017-08-22T22:29:08.689Z,15.37
2017-08-22T22:31:36.134Z,15.36
2017-08-22T22:34:03.578Z,15.25
2017-08-22T22:36:31.048Z,15.17
2017-08-22T22:38:58.529Z,15.16
2017-08-22T22:41:25.977Z,15.13
2017-08-22T22:43:53.424Z,15.08
2017-08-22T22:46:20.893Z,15.08
2017-08-22T22:48:48.342Z,15.04
2017-08-22T22:51:15.815Z,15.06
2017-08-22T22:53:43.286Z,14.83
2017-08-22T22:56:10.740Z,14.82
2017-08-22T22:58:38.188Z,14.83
2017-08-22T23:01:05.656Z,14.79
2017-08-22T23:03:33.100Z,14.68
2017-08-22T23:06:00.586Z,14.66
2017-08-22T23:08:28.029Z,14.76
2017-08-22T23:10:55.491Z,14.81
2017-08-22T23:13:22.981Z,14.65
2017-08-22T23:15:50.492Z,14.58
2017-08-22T23:18:17.950Z,14.47
2017-08-22T23:20:45.416Z,14.58
2017-08-22T23:23:12.859Z,14.50
2017-08-22T23:25:40.333Z,14.47
2017-08-22T23:28:07.787Z,14.41
2017-08-22T23:30:35.239Z,14.45
2017-08-22T23:33:02.720Z,14.49
2017-08-22T23:35:30.174Z,14.32
2017-08-22T23:37:57.641Z,14.36
2017-08-22T23:40:25.084Z,14.08
2017-08-22T23:42:58.073Z,13.92
2017-08-22T23:45:25.545Z,14.04
2017-08-22T23:47:53.021Z,13.73
2017-08-22T23:50:20.463Z,13.58
2017-08-22T23:52:47.912Z,13.63
2017-08-22T23:55:15.389Z,13.47
2017-08-22T23:57:42.841Z,13.45
